MYGF METAR and TAF weather

Enter ICAO airport designator
Station Type Date Time Source
MYGF METAR 2020/03/28 13:00 UTC NOAA

MYGF 281300Z 13006KT 9999 SCT030 24/19 A3012


Station Type Date Time Source
MYGF Decoded METAR 2020/03/28 13:00 UTC NOAA

Freeport, Grand Bahama, Bahamas, The (MYGF) 26-33N 078-42W 11M
Mar 28, 2020 - 09:00 AM EDT / 2020.03.28 1300 UTC
Wind: from the SE (130 degrees) at 7 MPH (6 KT):0
Visibility: greater than 7 mile(s):0
Sky conditions: partly cloudy
Temperature: 75 F (24 C)
Dew Point: 66 F (19 C)
Relative Humidity: 73%
Pressure (altimeter): 30.12 in. Hg (1019 hPa)
ob: MYGF 281300Z 13006KT 9999 SCT030 24/19 A3012
cycle: 13

Station Type Date Time Source
MYGF TAF 2020/03/28 12:30 UTC NOAA

MYGF 280930Z 2812/2912 12005KT 9999 FEW025
BECMG 2900/2902 15003KT CAVOK

Example: see airport list